Airport View

Enter AWOS ICAO identifier for current METAR.

ex. KFNL

KBEC 261235Z AUTO 15007KT 10SM CLR 21/17 A3005 RMK AO2 T02070165

26 Jun 2019 12:52

Frequency: 119.45

Phone: 316-515-7116

Other Area AWOS: KAAO - KIAB - K3AU - K1K1

TAF KIAB 261000Z 2610/2716 18006KT 9999 FEW200 QNH2998INS BECMG 2617/2618 18010G20KT 9999 FEW320 QNH3001INS BECMG 2701/2702 18012KT 9999 SKC QNH3001INS TX31/2620Z TN20/2612Z